首页
METAR-TAF:

METAR-TAF

机场 :

安托法加斯塔, 智利

纬度: 23-26S, 经度: 070-26W, 海拔: 135米

当前天气观测

该预报发布于18分钟前的11:00 UTC
风速1节,风向多变
温度 19°C
湿度 78%
气压 1014 hPa
能见度10公里或以上
阴天层高于2800英尺

METAR: SCFA 091100Z VRB01KT 9999 OVC028 19/15 Q1014 NOSIG

时间: 07:18 (11:18 UTC)

预报

该预报发布于7小时和2分钟前的04:16 UTC
预报有效从09日的 06点(UTC)到 10日的 06点(UTC)
风速4节,风向南转西南
能见度10公里或以上
1500米以下无云,无积雨云
成为
从 09日的 11点(UTC)到 09日的 12点(UTC)
少量云层高于2500英尺
成为
从 09日的 16点(UTC)到 09日的 18点(UTC)
风速14节,风向
能见度10公里或以上
1500米以下无云,无积雨云
成为
从 09日的 23点(UTC)到 10日的 01点(UTC)
多云层高于2500英尺

TAF: SCFA 090416Z 0906/1006 20004KT CAVOK TN17/0910Z TX23/0914Z BECMG 0911/0912 FEW025 BECMG 0916/0918 19014KT CAVOK BECMG 0923/1001 BKN025

超过4000个机场的气象观测和天气预报(METAR&TAF报告)。

可查询的气象台以黄色和红色小点在地图上表示。

将鼠标移到小点上方,可查看气象台名称。

然后点击查看天气观测和预报。

如需切换地图:点击带黑十字的绿色按钮放大地图;点击带横线的绿色按钮缩小地图;或者点击绿色箭头查看邻近地区的地图。


METAR-TAF: